CSA4 weather

Public forecast

Using degrees Celsius for public forecast. Weather courtesy of forecast.io.

Closest aviation weather report (METAR) to Boisvert & Fils Seaplane Base

Closest report is MontrĂ©al / Saint-Hubert Airport, 10.8 nm (20.0 km) SE. Retrieved 2020/08/11 12:00 UTC (32 minutes ago):

CYHU 111200Z AUTO 18009KT 9SM CLR 24/22 A2986 RMK SLP114 DENSITY ALT 1200FT

Closest aviation forecast (TAF) to Boisvert & Fils Seaplane Base

Closest forecast is MontrĂ©al / Saint-Hubert Airport, 10.8 nm (20.0 km) SE. Retrieved 2020/08/11 12:42 UTC (0 seconds ago):

TAF TAF CYHU 111138Z 1112/1212 19008KT P6SM SCT250 FM111700 21012G25KT P6SM SCT060 FM112000 21012G25KT P6SM BKN060 PROB30 1120/1202 VRB20G30KT 11/2SM +TSRA BR BKN020 BKN050CB FM120200 25012KT P6SM SCT040 RMK FCST BASED ON AUTO OBS NXT FCST BY 111800Z